createdAt,value
2019-05-20T00:00:56.916Z,1004.31
2019-05-20T00:01:56.931Z,1004.2
2019-05-20T00:03:36.964Z,1004.26
2019-05-20T00:04:57.050Z,1004.24
2019-05-20T00:06:27.070Z,1004.18
2019-05-20T00:07:57.139Z,1004.17
2019-05-20T00:09:27.208Z,1004.19
2019-05-20T00:10:57.220Z,1004.2
2019-05-20T00:12:27.247Z,1004.09
2019-05-20T00:13:27.277Z,1004.16
2019-05-20T00:14:57.299Z,1004.08
2019-05-20T00:16:27.332Z,1004.07
2019-05-20T00:18:07.352Z,1004.13
2019-05-20T00:19:27.365Z,1004
2019-05-20T00:20:57.437Z,1004
2019-05-20T00:21:47.638Z,1004
2019-05-20T00:22:27.484Z,1003.97
2019-05-20T00:23:27.489Z,1004.07
2019-05-20T00:24:57.619Z,1003.98
2019-05-20T00:25:47.734Z,1004
2019-05-20T00:26:27.715Z,1003.98
2019-05-20T00:27:57.800Z,1004.01
2019-05-20T00:29:27.931Z,1004.06
2019-05-20T00:30:57.949Z,1004.02
2019-05-20T00:32:40.520Z,1004.03
2019-05-20T00:33:27.973Z,1004
2019-05-20T00:34:57.998Z,1004.01
2019-05-20T00:36:28.024Z,1003.95
2019-05-20T00:38:08.086Z,1003.97
2019-05-20T00:39:28.100Z,1003.98
2019-05-20T00:40:58.118Z,1003.96
2019-05-20T00:42:28.256Z,1003.93
2019-05-20T00:43:28.267Z,1003.97
2019-05-20T00:44:58.303Z,1003.95
2019-05-20T00:46:28.351Z,1003.97
2019-05-20T00:47:18.470Z,1003.89
2019-05-20T00:47:58.484Z,1003.91
2019-05-20T00:48:38.527Z,1003.94
2019-05-20T00:49:18.627Z,1003.99
2019-05-20T00:49:48.594Z,1003.89
2019-05-20T00:50:28.626Z,1003.95
2019-05-20T00:51:18.847Z,1003.91
2019-05-20T00:52:28.714Z,1003.91
2019-05-20T00:53:28.721Z,1003.88
2019-05-20T00:55:28.841Z,1003.85
2019-05-20T00:56:18.913Z,1003.91
2019-05-20T00:57:28.917Z,1003.92
2019-05-20T00:58:28.925Z,1003.92
2019-05-20T00:59:19.020Z,1003.89
2019-05-20T01:00:29.071Z,1003.92
2019-05-20T01:02:29.104Z,1003.9
2019-05-20T01:03:29.124Z,1003.89
2019-05-20T01:04:19.126Z,1003.86
2019-05-20T01:05:29.191Z,1003.88
2019-05-20T01:07:29.277Z,1003.94
2019-05-20T01:08:29.281Z,1003.85
2019-05-20T01:09:19.327Z,1003.92
2019-05-20T01:09:49.378Z,1003.87
2019-05-20T01:10:29.438Z,1003.9
2019-05-20T01:11:19.413Z,1003.84
2019-05-20T01:11:59.360Z,1003.91
2019-05-20T01:12:49.659Z,1003.89
2019-05-20T01:13:29.443Z,1003.89
2019-05-20T01:14:59.523Z,1003.91
2019-05-20T01:15:39.599Z,1003.9
2019-05-20T01:16:49.573Z,1003.9
2019-05-20T01:17:29.576Z,1003.89
2019-05-20T01:18:29.650Z,1003.85
2019-05-20T01:20:29.770Z,1003.91
2019-05-20T01:22:29.851Z,1003.87
2019-05-20T01:23:31.038Z,1003.82
2019-05-20T01:25:29.955Z,1003.9
2019-05-20T01:27:30.120Z,1003.94
2019-05-20T01:28:30.185Z,1003.96
2019-05-20T01:30:00.454Z,1003.91
2019-05-20T01:31:00.352Z,1003.86
2019-05-20T01:32:00.414Z,1003.84
2019-05-20T01:33:14.065Z,1003.84
2019-05-20T01:34:00.568Z,1003.87
2019-05-20T01:35:00.520Z,1003.85
2019-05-20T01:36:00.411Z,1003.88
2019-05-20T01:37:00.566Z,1003.88
2019-05-20T01:38:10.524Z,1003.81
2019-05-20T01:39:00.428Z,1003.82
2019-05-20T01:40:00.476Z,1003.82
2019-05-20T01:41:00.352Z,1003.85
2019-05-20T01:42:30.369Z,1003.81
2019-05-20T01:43:30.397Z,1003.84
2019-05-20T01:45:00.596Z,1003.81
2019-05-20T01:46:30.622Z,1003.68
2019-05-20T01:48:10.656Z,1003.74
2019-05-20T01:49:30.669Z,1003.66
2019-05-20T01:51:00.682Z,1003.69
2019-05-20T01:51:50.737Z,1003.67
2019-05-20T01:52:30.765Z,1003.71
2019-05-20T01:53:30.769Z,1003.67
2019-05-20T01:55:00.784Z,1003.62
2019-05-20T01:56:30.809Z,1003.63
2019-05-20T01:58:10.842Z,1003.6
2019-05-20T01:59:30.860Z,1003.62
2019-05-20T02:01:00.900Z,1003.59
2019-05-20T02:02:30.934Z,1003.58
2019-05-20T02:03:32.371Z,1003.57
2019-05-20T02:05:01.093Z,1003.59
2019-05-20T02:06:31.101Z,1003.54
2019-05-20T02:08:11.169Z,1003.64
2019-05-20T02:09:31.356Z,1003.64
2019-05-20T02:11:01.378Z,1003.59
2019-05-20T02:13:01.439Z,1003.59
2019-05-20T02:16:31.483Z,1003.58
2019-05-20T02:18:11.504Z,1003.66
2019-05-20T02:19:31.529Z,1003.6
2019-05-20T02:21:01.648Z,1003.59
2019-05-20T02:22:31.688Z,1003.53
2019-05-20T02:24:01.681Z,1003.53
2019-05-20T02:25:31.723Z,1003.44
2019-05-20T02:27:01.743Z,1003.42
2019-05-20T02:28:01.760Z,1003.38
2019-05-20T02:29:31.870Z,1003.28
2019-05-20T02:31:01.888Z,1003.28
2019-05-20T02:32:31.983Z,1003.38
2019-05-20T02:34:02.051Z,1003.36
2019-05-20T02:35:32.028Z,1003.25
2019-05-20T02:37:02.082Z,1003.32
2019-05-20T02:38:02.095Z,1003.33
2019-05-20T02:40:32.107Z,1003.33
2019-05-20T02:43:12.176Z,1003.35
2019-05-20T02:45:32.185Z,1003.24
2019-05-20T02:47:02.207Z,1003.29
2019-05-20T02:48:02.215Z,1003.29
2019-05-20T02:49:32.397Z,1003.37
2019-05-20T02:51:02.409Z,1003.32
2019-05-20T02:52:32.429Z,1003.3
2019-05-20T02:54:02.546Z,1003.25
2019-05-20T02:55:32.521Z,1003.29
2019-05-20T02:57:02.554Z,1003.28
2019-05-20T02:58:02.568Z,1003.26
2019-05-20T02:59:32.588Z,1003.25
2019-05-20T03:02:02.863Z,1003.17
2019-05-20T03:03:02.770Z,1003.24
2019-05-20T03:04:32.864Z,1003.24
2019-05-20T03:06:02.889Z,1003.22
2019-05-20T03:07:32.951Z,1003.25
2019-05-20T03:09:03.086Z,1003.29
2019-05-20T03:10:33.179Z,1003.29
2019-05-20T03:12:03.215Z,1003.23
2019-05-20T03:13:03.260Z,1003.27
2019-05-20T03:14:33.318Z,1003.21
2019-05-20T03:18:13.372Z,1003.24
2019-05-20T03:23:13.463Z,1003.23
2019-05-20T03:28:13.581Z,1003.25
2019-05-20T03:29:33.796Z,1003.21
2019-05-20T03:30:23.790Z,1003.18
2019-05-20T03:31:03.824Z,1003.31
2019-05-20T03:31:53.830Z,1003.22
2019-05-20T03:32:53.959Z,1003.17
2019-05-20T03:33:53.948Z,1003.21
2019-05-20T03:34:58.392Z,1003.25
2019-05-20T03:35:33.952Z,1003.25
2019-05-20T03:36:23.944Z,1003.35
2019-05-20T03:37:03.969Z,1003.26
2019-05-20T03:38:03.987Z,1003.3
2019-05-20T03:38:54.002Z,1003.31
2019-05-20T03:39:54.016Z,1003.23
2019-05-20T03:40:54.037Z,1003.33
2019-05-20T03:41:54.054Z,1003.27
2019-05-20T03:43:14.159Z,1003.36
2019-05-20T03:43:54.095Z,1003.36
2019-05-20T03:44:54.100Z,1003.4
2019-05-20T03:45:54.276Z,1003.34
2019-05-20T03:48:14.217Z,1003.38
2019-05-20T03:48:54.188Z,1003.33
2019-05-20T03:53:14.459Z,1003.33
2019-05-20T03:54:34.511Z,1003.33
2019-05-20T03:55:14.528Z,1003.29
2019-05-20T04:01:14.620Z,1003.32
2019-05-20T04:03:14.652Z,1003.32
2019-05-20T04:06:34.754Z,1003.34
2019-05-20T04:07:34.757Z,1003.31
2019-05-20T04:08:14.766Z,1003.31
2019-05-20T04:10:14.881Z,1003.27
2019-05-20T04:12:44.930Z,1003.24
2019-05-20T04:14:04.965Z,1003.21
2019-05-20T04:16:05.068Z,1003.21
2019-05-20T04:19:15.122Z,1003.16
2019-05-20T04:34:35.720Z,1003.2
2019-05-20T04:35:21.848Z,1003.18
2019-05-20T04:37:45.782Z,1003.17
2019-05-20T04:39:05.789Z,1003.24
2019-05-20T04:40:35.811Z,1003.21
2019-05-20T04:41:15.830Z,1003.26
2019-05-20T04:44:16.138Z,1003.19
2019-05-20T04:48:05.985Z,1003.22
2019-05-20T04:53:36.280Z,1003.32
2019-05-20T04:54:16.292Z,1003.23
2019-05-20T04:56:36.349Z,1003.24
2019-05-20T04:58:06.355Z,1003.24
2019-05-20T04:59:36.388Z,1003.26
2019-05-20T05:00:16.390Z,1003.18
2019-05-20T05:02:46.544Z,1003.23
2019-05-20T05:04:06.517Z,1003.25
2019-05-20T05:16:36.859Z,1003.32
2019-05-20T05:17:36.864Z,1003.32
2019-05-20T05:20:06.898Z,1003.21
2019-05-20T05:21:36.928Z,1003.26
2019-05-20T05:22:36.945Z,1003.31
2019-05-20T05:26:07.061Z,1003.39
2019-05-20T05:33:07.253Z,1003.29
2019-05-20T05:36:37.370Z,1003.29
2019-05-20T05:37:47.708Z,1003.33
2019-05-20T05:39:07.413Z,1003.35
2019-05-20T05:40:37.437Z,1003.3
2019-05-20T05:42:07.482Z,1003.37
2019-05-20T05:43:07.501Z,1003.32
2019-05-20T05:44:37.563Z,1003.44
2019-05-20T05:47:47.691Z,1003.36
2019-05-20T05:52:07.945Z,1003.4
2019-05-20T05:53:07.952Z,1003.42
2019-05-20T05:56:38.061Z,1003.39
2019-05-20T05:57:48.118Z,1003.43
2019-05-20T06:02:08.158Z,1003.48
2019-05-20T06:03:08.252Z,1003.44
2019-05-20T06:06:38.273Z,1003.54
2019-05-20T06:07:48.290Z,1003.51
2019-05-20T06:11:08.518Z,1003.59
2019-05-20T06:13:08.612Z,1003.6
2019-05-20T06:16:38.668Z,1003.57
2019-05-20T06:17:48.686Z,1003.6
2019-05-20T06:22:48.853Z,1003.62
2019-05-20T06:27:48.888Z,1003.66
2019-05-20T06:31:08.957Z,1003.69
2019-05-20T06:34:42.037Z,1003.69
2019-05-20T06:37:09.082Z,1003.7
2019-05-20T06:38:09.104Z,1003.74
2019-05-20T06:41:09.203Z,1003.63
2019-05-20T06:45:39.266Z,1003.73
2019-05-20T06:48:19.387Z,1003.72
2019-05-20T06:52:49.522Z,1003.78
2019-05-20T06:54:09.553Z,1003.75
2019-05-20T06:55:39.577Z,1003.83
2019-05-20T07:00:09.700Z,1003.77
2019-05-20T07:01:39.732Z,1003.8
2019-05-20T07:02:52.076Z,1003.78
2019-05-20T07:10:09.975Z,1003.83
2019-05-20T07:11:39.961Z,1003.91
2019-05-20T07:12:49.970Z,1003.92
2019-05-20T07:16:10.039Z,1003.83
2019-05-20T07:20:10.142Z,1003.95
2019-05-20T07:22:20.177Z,1003.92
2019-05-20T07:24:20.256Z,1003.96
2019-05-20T07:25:20.322Z,1004.01
2019-05-20T07:26:20.344Z,1003.94
2019-05-20T07:27:40.364Z,1004.02
2019-05-20T07:28:40.366Z,1003.96
2019-05-20T07:29:50.411Z,1004.03
2019-05-20T07:30:50.457Z,1004.06
2019-05-20T07:31:50.559Z,1004.04
2019-05-20T07:33:10.644Z,1003.97
2019-05-20T07:33:50.619Z,1003.99
2019-05-20T07:34:50.644Z,1004.02
2019-05-20T07:35:50.671Z,1004
2019-05-20T07:37:02.338Z,1003.98
2019-05-20T07:38:10.712Z,1004.02
2019-05-20T07:38:50.713Z,1004.02
2019-05-20T07:39:50.746Z,1004
2019-05-20T07:40:50.751Z,1004
2019-05-20T07:41:50.769Z,1003.96
2019-05-20T07:43:10.818Z,1004.02
2019-05-20T07:43:50.833Z,1004.01
2019-05-20T07:44:50.823Z,1003.98
2019-05-20T07:45:50.834Z,1004
2019-05-20T07:46:50.893Z,1003.98
2019-05-20T07:48:10.959Z,1003.96
2019-05-20T07:48:50.934Z,1003.98
2019-05-20T07:49:50.923Z,1003.96
2019-05-20T07:50:50.966Z,1004
2019-05-20T07:51:50.989Z,1003.98
2019-05-20T07:53:11.013Z,1004.01
2019-05-20T07:53:51.048Z,1004.05
2019-05-20T07:54:51.038Z,1004.06
2019-05-20T07:55:51.059Z,1004.02
2019-05-20T07:56:51.070Z,1004.04
2019-05-20T07:58:11.094Z,1004.08
2019-05-20T07:58:51.110Z,1004.05
2019-05-20T07:59:51.128Z,1003.97
2019-05-20T08:00:51.181Z,1004.01
2019-05-20T08:01:51.148Z,1004.02
2019-05-20T08:03:11.179Z,1004.06
2019-05-20T08:03:51.188Z,1004.06
2019-05-20T08:04:51.212Z,1004.1
2019-05-20T08:06:11.296Z,1004.04
2019-05-20T08:07:26.497Z,1004.12
2019-05-20T08:07:52.585Z,1004.12
2019-05-20T08:08:51.432Z,1004.11
2019-05-20T08:09:51.439Z,1004.04
2019-05-20T08:11:11.474Z,1004.07
2019-05-20T08:12:11.493Z,1004.05
2019-05-20T08:12:51.507Z,1004.08
2019-05-20T08:13:51.618Z,1004.07
2019-05-20T08:14:51.644Z,1004.15
2019-05-20T08:16:11.687Z,1004.08
2019-05-20T08:17:11.680Z,1004.12
2019-05-20T08:17:51.678Z,1004.16
2019-05-20T08:18:51.718Z,1004.09
2019-05-20T08:19:51.711Z,1004.17
2019-05-20T08:21:11.749Z,1004.09
2019-05-20T08:21:51.751Z,1004.12
2019-05-20T08:22:51.750Z,1004.14
2019-05-20T08:23:51.844Z,1004.1
2019-05-20T08:24:51.851Z,1004.16
2019-05-20T08:26:11.919Z,1004.15
2019-05-20T08:26:51.950Z,1004.2
2019-05-20T08:27:52.015Z,1004.15
2019-05-20T08:28:52.019Z,1004.12
2019-05-20T08:29:52.057Z,1004.17
2019-05-20T08:31:12.209Z,1004.14
2019-05-20T08:31:52.229Z,1004.13
2019-05-20T08:32:52.250Z,1004.23
2019-05-20T08:33:52.290Z,1004.25
2019-05-20T08:34:52.372Z,1004.21
2019-05-20T08:36:12.390Z,1004.24
2019-05-20T08:36:52.403Z,1004.19
2019-05-20T08:37:52.443Z,1004.24
2019-05-20T08:38:52.459Z,1004.19
2019-05-20T08:39:52.469Z,1004.2
2019-05-20T08:41:12.839Z,1004.17
2019-05-20T08:41:52.537Z,1004.22
2019-05-20T08:42:52.544Z,1004.25
2019-05-20T08:44:12.561Z,1004.24
2019-05-20T08:45:12.573Z,1004.26
2019-05-20T08:46:42.672Z,1004.19
2019-05-20T08:47:52.669Z,1004.26
2019-05-20T08:48:52.697Z,1004.3
2019-05-20T08:49:52.923Z,1004.29
2019-05-20T08:51:12.751Z,1004.2
2019-05-20T08:51:52.758Z,1004.29
2019-05-20T08:52:52.778Z,1004.31
2019-05-20T08:53:52.779Z,1004.27
2019-05-20T08:54:52.941Z,1004.34
2019-05-20T08:56:12.982Z,1004.25
2019-05-20T08:59:23.026Z,1004.26
2019-05-20T09:00:24.173Z,1004.33
2019-05-20T09:01:43.061Z,1004.25
2019-05-20T09:02:53.152Z,1004.27
2019-05-20T09:03:53.104Z,1004.26
2019-05-20T09:04:53.110Z,1004.25
2019-05-20T09:06:13.183Z,1004.26
2019-05-20T09:08:23.237Z,1004.29
2019-05-20T09:09:23.618Z,1004.26
2019-05-20T09:10:23.247Z,1004.31
2019-05-20T09:11:43.263Z,1004.24
2019-05-20T09:12:53.289Z,1004.21
2019-05-20T09:15:23.611Z,1004.27
2019-05-20T09:16:43.339Z,1004.25
2019-05-20T09:17:53.358Z,1004.31
2019-05-20T09:18:53.376Z,1004.31
2019-05-20T09:19:53.395Z,1004.36
2019-05-20T09:21:13.629Z,1004.33
2019-05-20T09:23:23.462Z,1004.34
2019-05-20T09:24:23.469Z,1004.37
2019-05-20T09:25:23.516Z,1004.35
2019-05-20T09:26:43.613Z,1004.31
2019-05-20T09:27:53.655Z,1004.35
2019-05-20T09:28:53.716Z,1004.3
2019-05-20T09:29:53.737Z,1004.35
2019-05-20T09:31:13.816Z,1004.29
2019-05-20T09:32:03.910Z,1004.33
2019-05-20T09:33:03.856Z,1004.25
2019-05-20T09:34:03.883Z,1004.35
2019-05-20T09:35:03.880Z,1004.28
2019-05-20T09:36:25.899Z,1004.27
2019-05-20T09:37:23.920Z,1004.3
2019-05-20T09:38:23.943Z,1004.34
2019-05-20T09:39:03.983Z,1004.29
2019-05-20T09:40:03.983Z,1004.24
2019-05-20T09:41:04.000Z,1004.29
2019-05-20T09:42:04.006Z,1004.26
2019-05-20T09:43:34.015Z,1004.29
2019-05-20T09:44:54.051Z,1004.3
2019-05-20T09:46:06.039Z,1004.25
2019-05-20T09:46:54.100Z,1004.3
2019-05-20T09:48:14.164Z,1004.26
2019-05-20T09:49:04.319Z,1004.22
2019-05-20T09:50:04.270Z,1004.25
2019-05-20T09:51:04.296Z,1004.26
2019-05-20T09:52:04.414Z,1004.34
2019-05-20T09:53:34.388Z,1004.32
2019-05-20T09:54:54.375Z,1004.22
2019-05-20T09:55:54.402Z,1004.26
2019-05-20T09:56:54.395Z,1004.26
2019-05-20T09:58:14.414Z,1004.35
2019-05-20T09:59:16.390Z,1004.28
2019-05-20T10:00:24.434Z,1004.25
2019-05-20T10:01:24.450Z,1004.34
2019-05-20T10:02:44.480Z,1004.33
2019-05-20T10:03:44.486Z,1004.34
2019-05-20T10:04:54.556Z,1004.35
2019-05-20T10:05:54.575Z,1004.32
2019-05-20T10:06:54.586Z,1004.34
2019-05-20T10:08:14.641Z,1004.35
2019-05-20T10:09:14.739Z,1004.41
2019-05-20T10:10:24.707Z,1004.36
2019-05-20T10:11:24.720Z,1004.39
2019-05-20T10:12:46.310Z,1004.34
2019-05-20T10:13:44.809Z,1004.35
2019-05-20T10:14:54.801Z,1004.33
2019-05-20T10:15:54.796Z,1004.31
2019-05-20T10:18:36.385Z,1004.27
2019-05-20T10:19:14.861Z,1004.41
2019-05-20T10:20:24.942Z,1004.39
2019-05-20T10:21:24.896Z,1004.32
2019-05-20T10:22:44.911Z,1004.37
2019-05-20T10:23:44.955Z,1004.39
2019-05-20T10:24:55.038Z,1004.46
2019-05-20T10:25:55.065Z,1004.3
2019-05-20T10:29:55.150Z,1004.38
2019-05-20T10:30:55.151Z,1004.38
2019-05-20T10:31:55.192Z,1004.4
2019-05-20T10:33:15.204Z,1004.34
2019-05-20T10:34:15.257Z,1004.41
2019-05-20T10:35:25.227Z,1004.37
2019-05-20T10:36:25.239Z,1004.38
2019-05-20T10:37:45.271Z,1004.38
2019-05-20T10:38:57.174Z,1004.42
2019-05-20T10:39:55.302Z,1004.48
2019-05-20T10:43:45.387Z,1004.46
2019-05-20T10:44:55.409Z,1004.45
2019-05-20T10:45:55.426Z,1004.44
2019-05-20T10:46:55.441Z,1004.46
2019-05-20T10:48:25.511Z,1004.41
2019-05-20T10:49:15.537Z,1004.44
2019-05-20T10:50:25.543Z,1004.4
2019-05-20T10:51:25.618Z,1004.41
2019-05-20T10:52:45.587Z,1004.48
2019-05-20T10:53:45.634Z,1004.35
2019-05-20T10:58:25.699Z,1004.38
2019-05-20T11:00:15.764Z,1004.39
2019-05-20T11:01:15.794Z,1004.47
2019-05-20T11:04:15.896Z,1004.47
2019-05-20T11:05:15.903Z,1004.47
2019-05-20T11:06:15.941Z,1004.48
2019-05-20T11:09:56.076Z,1004.5
2019-05-20T11:10:56.061Z,1004.57
2019-05-20T11:11:56.145Z,1004.52
2019-05-20T11:13:26.164Z,1004.6
2019-05-20T11:15:16.238Z,1004.61
2019-05-20T11:16:16.203Z,1004.68
2019-05-20T11:19:46.266Z,1004.7
2019-05-20T11:20:46.350Z,1004.7
2019-05-20T11:21:56.676Z,1004.67
2019-05-20T11:23:26.452Z,1004.66
2019-05-20T11:25:16.474Z,1004.71
2019-05-20T11:26:16.484Z,1004.66
2019-05-20T11:29:46.550Z,1004.8
2019-05-20T11:30:46.558Z,1004.8
2019-05-20T11:31:46.591Z,1004.8
2019-05-20T11:33:26.598Z,1004.79
2019-05-20T11:35:16.611Z,1004.85
2019-05-20T11:36:16.652Z,1004.84
2019-05-20T11:40:56.758Z,1004.9
2019-05-20T11:41:56.743Z,1004.91
2019-05-20T11:43:26.758Z,1004.95
2019-05-20T11:44:56.814Z,1004.93
2019-05-20T11:45:56.798Z,1004.92
2019-05-20T11:46:56.805Z,1004.92
2019-05-20T11:48:16.886Z,1004.84
2019-05-20T11:50:56.888Z,1004.82
2019-05-20T11:51:56.876Z,1004.9
2019-05-20T11:53:16.904Z,1004.89
2019-05-20T11:55:16.961Z,1004.82
2019-05-20T11:56:17.000Z,1004.93
2019-05-20T11:59:47.004Z,1004.88
2019-05-20T12:00:47.019Z,1004.92
2019-05-20T12:03:47.219Z,1004.88
2019-05-20T12:04:48.141Z,1004.91
2019-05-20T12:05:47.233Z,1004.9
2019-05-20T12:07:27.147Z,1004.83
2019-05-20T12:08:27.158Z,1004.91
2019-05-20T12:09:57.324Z,1004.87
2019-05-20T12:10:57.243Z,1004.87
2019-05-20T12:12:17.445Z,1004.89
2019-05-20T12:13:27.813Z,1004.91
2019-05-20T12:15:18.618Z,1004.83
2019-05-20T12:16:17.488Z,1004.86
2019-05-20T12:19:47.554Z,1004.94
2019-05-20T12:20:47.565Z,1004.93
2019-05-20T12:23:27.592Z,1005
2019-05-20T12:25:17.620Z,1004.98
2019-05-20T12:26:17.646Z,1004.97
2019-05-20T12:29:17.735Z,1004.95
2019-05-20T12:30:17.850Z,1004.93
2019-05-20T12:31:17.896Z,1005
2019-05-20T12:33:47.812Z,1005.02
2019-05-20T12:34:47.915Z,1004.94
2019-05-20T12:35:47.858Z,1004.94
2019-05-20T12:37:27.868Z,1004.97
2019-05-20T12:38:27.893Z,1005
2019-05-20T12:40:06.847Z,1005.1
2019-05-20T12:44:07.788Z,1005.02
2019-05-20T12:47:28.109Z,1005.03
2019-05-20T12:48:28.076Z,1005.05
2019-05-20T12:55:05.841Z,1005.04
2019-05-20T12:59:18.388Z,1005.12
2019-05-20T13:00:18.411Z,1005.01
2019-05-20T13:01:18.586Z,1005.05
2019-05-20T13:04:48.505Z,1005.07
2019-05-20T13:05:58.558Z,1005.03
2019-05-20T13:07:18.618Z,1005
2019-05-20T13:08:28.630Z,1005.05
2019-05-20T13:10:29.470Z,1005.01
2019-05-20T13:11:18.688Z,1005.02
2019-05-20T13:14:58.757Z,1005.07
2019-05-20T13:15:58.809Z,1005.03
2019-05-20T13:17:18.858Z,1005.01
2019-05-20T13:18:28.862Z,1005.1
2019-05-20T13:20:18.892Z,1005.12
2019-05-20T13:21:19.009Z,1005.01
2019-05-20T13:24:59.013Z,1005.02
2019-05-20T13:25:59.042Z,1005.13
2019-05-20T13:27:19.078Z,1005.09
2019-05-20T13:28:29.093Z,1005.07
2019-05-20T13:30:19.128Z,1005.12
2019-05-20T13:31:19.128Z,1005.12
2019-05-20T13:34:59.183Z,1005.15
2019-05-20T13:35:59.202Z,1005.14
2019-05-20T13:38:29.254Z,1005.14
2019-05-20T13:39:19.253Z,1005.13
2019-05-20T13:40:19.254Z,1005.14
2019-05-20T13:41:19.266Z,1005.14
2019-05-20T13:42:29.420Z,1005.12
2019-05-20T13:43:29.429Z,1005.14
2019-05-20T13:44:19.455Z,1005.17
2019-05-20T13:45:19.476Z,1005.15
2019-05-20T13:46:19.510Z,1005.18
2019-05-20T13:47:29.518Z,1005.22
2019-05-20T13:48:29.526Z,1005.16
2019-05-20T13:48:49.591Z,1005.21
2019-05-20T13:49:19.574Z,1005.16
2019-05-20T13:51:19.603Z,1005.18
2019-05-20T13:52:29.611Z,1005.23
2019-05-20T13:52:59.620Z,1005.26
2019-05-20T13:53:19.644Z,1005.18
2019-05-20T13:54:49.653Z,1005.13
2019-05-20T13:55:19.643Z,1005.17
2019-05-20T13:56:49.679Z,1005.14
2019-05-20T13:57:19.676Z,1005.15
2019-05-20T13:57:49.693Z,1005.21
2019-05-20T13:58:19.695Z,1005.21
2019-05-20T13:59:19.702Z,1005.22
2019-05-20T14:00:59.724Z,1005.22
2019-05-20T14:04:19.755Z,1005.19
2019-05-20T14:05:19.794Z,1005.22
2019-05-20T14:06:19.839Z,1005.23
2019-05-20T14:07:29.843Z,1005.26
2019-05-20T14:08:29.854Z,1005.24
2019-05-20T14:09:19.967Z,1005.17
2019-05-20T14:10:19.859Z,1005.2
2019-05-20T14:11:33.732Z,1005.1
2019-05-20T14:12:29.904Z,1005.21
2019-05-20T14:13:29.923Z,1005.17
2019-05-20T14:14:19.947Z,1005.12
2019-05-20T14:15:19.929Z,1005.2
2019-05-20T14:16:19.951Z,1005.18
2019-05-20T14:17:30.025Z,1005.17
2019-05-20T14:18:30.018Z,1005.22
2019-05-20T14:19:22.495Z,1005.2
2019-05-20T14:20:20.046Z,1005.18
2019-05-20T14:21:20.057Z,1005.15
2019-05-20T14:25:00.128Z,1005.09
2019-05-20T14:26:00.143Z,1005.2
2019-05-20T14:28:30.198Z,1005.14
2019-05-20T14:29:20.262Z,1005.23
2019-05-20T14:30:20.294Z,1005.12
2019-05-20T14:31:20.299Z,1005.09
2019-05-20T14:32:30.315Z,1005.17
2019-05-20T14:33:30.319Z,1005.17
2019-05-20T14:34:20.343Z,1005.17
2019-05-20T14:35:20.375Z,1005.18
2019-05-20T14:36:38.271Z,1005.17
2019-05-20T14:40:00.457Z,1005.21
2019-05-20T14:41:00.481Z,1005.14
2019-05-20T14:42:20.481Z,1005.1
2019-05-20T14:43:30.518Z,1005.14
2019-05-20T14:45:20.534Z,1005.15
2019-05-20T14:46:20.529Z,1005.18
2019-05-20T14:50:00.600Z,1005.08
2019-05-20T14:51:00.598Z,1005.04
2019-05-20T14:52:20.610Z,1005.06
2019-05-20T14:53:30.635Z,1005.07
2019-05-20T14:55:20.692Z,1005.16
2019-05-20T14:56:20.671Z,1005.12
2019-05-20T14:57:30.686Z,1005.13
2019-05-20T14:58:30.711Z,1005.18
2019-05-20T14:59:20.775Z,1005.12
2019-05-20T15:00:20.792Z,1005.19
2019-05-20T15:01:20.736Z,1005.09
2019-05-20T15:02:31.197Z,1005.12
2019-05-20T15:03:30.756Z,1005.1
2019-05-20T15:04:20.800Z,1005.11
2019-05-20T15:05:20.787Z,1005.08
2019-05-20T15:06:20.808Z,1005.06
2019-05-20T15:07:31.420Z,1005.11
2019-05-20T15:08:34.237Z,1005.13
2019-05-20T15:09:20.851Z,1005.1
2019-05-20T15:10:20.857Z,1005.09
2019-05-20T15:11:35.617Z,1005.13
2019-05-20T15:12:30.882Z,1005.15
2019-05-20T15:13:30.886Z,1005.15
2019-05-20T15:14:20.913Z,1005.11
2019-05-20T15:15:20.938Z,1005.14
2019-05-20T15:16:20.949Z,1005.06
2019-05-20T15:17:30.949Z,1005.15
2019-05-20T15:18:30.993Z,1005.08
2019-05-20T15:19:21.035Z,1005.12
2019-05-20T15:20:21.062Z,1005.1
2019-05-20T15:21:21.071Z,1005.15
2019-05-20T15:24:21.150Z,1005.03
2019-05-20T15:25:21.155Z,1005.07
2019-05-20T15:26:21.235Z,1005.07
2019-05-20T15:30:01.347Z,1005.08
2019-05-20T15:31:01.353Z,1005.04
2019-05-20T15:32:21.353Z,1005.02
2019-05-20T15:33:31.365Z,1005.04
2019-05-20T15:35:21.396Z,1005.06
2019-05-20T15:36:21.401Z,1005.01
2019-05-20T15:37:31.451Z,1005.04
2019-05-20T15:38:31.435Z,1005.07
2019-05-20T15:39:21.472Z,1005.06
2019-05-20T15:40:24.248Z,1005.05
2019-05-20T15:41:21.518Z,1005.14
2019-05-20T15:42:31.596Z,1005.21
2019-05-20T15:43:21.621Z,1005.15
2019-05-20T15:44:21.629Z,1005.15
2019-05-20T15:45:21.639Z,1005.19
2019-05-20T15:46:21.689Z,1005.24
2019-05-20T15:47:31.702Z,1005.16
2019-05-20T15:48:31.706Z,1005.1
2019-05-20T15:49:21.720Z,1005.12
2019-05-20T15:50:21.760Z,1005.1
2019-05-20T15:51:21.752Z,1005.03
2019-05-20T15:52:31.769Z,1005.02
2019-05-20T15:53:31.850Z,1005.13
2019-05-20T15:54:21.804Z,1005.14
2019-05-20T15:55:21.808Z,1005.16
2019-05-20T15:56:21.820Z,1005.11
2019-05-20T15:57:31.852Z,1005.11
2019-05-20T15:58:23.778Z,1005.12
2019-05-20T15:59:21.922Z,1005.13
2019-05-20T16:00:21.944Z,1005.12
2019-05-20T16:01:21.952Z,1005.12
2019-05-20T16:04:02.022Z,1005.12
2019-05-20T16:05:02.048Z,1005.11
2019-05-20T16:06:02.050Z,1005.1
2019-05-20T16:07:22.092Z,1005.1
2019-05-20T16:10:22.123Z,1005.07
2019-05-20T16:11:22.144Z,1005.09
2019-05-20T16:14:02.231Z,1005.11
2019-05-20T16:15:02.250Z,1005.17
2019-05-20T16:16:02.276Z,1005.05
2019-05-20T16:20:22.309Z,1005.09
2019-05-20T16:21:22.333Z,1005.1
2019-05-20T16:22:32.369Z,1005.1
2019-05-20T16:23:22.385Z,1005.11
2019-05-20T16:24:22.388Z,1005.06
2019-05-20T16:25:22.410Z,1005.1
2019-05-20T16:26:22.470Z,1005.1
2019-05-20T16:27:32.895Z,1005.15
2019-05-20T16:28:22.457Z,1005.16
2019-05-20T16:29:22.475Z,1005.15
2019-05-20T16:30:22.494Z,1005.13
2019-05-20T16:31:22.491Z,1005.19
2019-05-20T16:32:32.555Z,1005.17
2019-05-20T16:33:22.532Z,1005.15
2019-05-20T16:34:22.542Z,1005.13
2019-05-20T16:35:22.552Z,1005.17
2019-05-20T16:36:52.561Z,1005.14
2019-05-20T16:38:02.629Z,1005.16
2019-05-20T16:39:02.636Z,1005.17
2019-05-20T16:40:02.787Z,1005.13
2019-05-20T16:41:02.664Z,1005.08
2019-05-20T16:45:22.766Z,1005.22
2019-05-20T16:46:32.786Z,1005.28
2019-05-20T16:47:32.790Z,1005.25
2019-05-20T16:48:22.809Z,1005.21
2019-05-20T16:49:22.816Z,1005.22
2019-05-20T16:50:22.817Z,1005.31
2019-05-20T16:51:32.840Z,1005.14
2019-05-20T16:52:32.979Z,1005.2
2019-05-20T16:53:22.942Z,1005.15
2019-05-20T16:54:22.945Z,1005.22
2019-05-20T16:58:23.012Z,1005.2
2019-05-20T16:59:23.009Z,1005.26
2019-05-20T17:00:31.149Z,1005.29
2019-05-20T17:01:45.423Z,1005.25
2019-05-20T17:02:33.052Z,1005.25
2019-05-20T17:03:23.088Z,1005.28
2019-05-20T17:04:23.114Z,1005.25
2019-05-20T17:05:23.114Z,1005.21
2019-05-20T17:06:33.191Z,1005.26
2019-05-20T17:07:33.219Z,1005.23
2019-05-20T17:08:23.249Z,1005.32
2019-05-20T17:09:23.222Z,1005.33
2019-05-20T17:10:23.247Z,1005.31
2019-05-20T17:11:53.270Z,1005.34
2019-05-20T17:13:03.287Z,1005.38
2019-05-20T17:14:03.289Z,1005.44
2019-05-20T17:15:03.312Z,1005.44
2019-05-20T17:16:03.323Z,1005.31
2019-05-20T17:20:23.511Z,1005.36
2019-05-20T17:21:33.640Z,1005.33
2019-05-20T17:22:33.643Z,1005.34
2019-05-20T17:23:23.654Z,1005.35
2019-05-20T17:24:23.674Z,1005.43
2019-05-20T17:25:23.687Z,1005.35
2019-05-20T17:26:33.693Z,1005.37
2019-05-20T17:27:43.719Z,1005.36
2019-05-20T17:29:03.739Z,1005.41
2019-05-20T17:30:04.313Z,1005.38
2019-05-20T17:31:03.767Z,1005.36
2019-05-20T17:32:13.790Z,1005.43
2019-05-20T17:33:13.806Z,1005.45
2019-05-20T17:34:23.801Z,1005.36
2019-05-20T17:35:23.872Z,1005.42
2019-05-20T17:36:33.952Z,1005.43
2019-05-20T17:37:33.867Z,1005.42
2019-05-20T17:38:23.879Z,1005.44
2019-05-20T17:39:23.938Z,1005.45
2019-05-20T17:40:23.912Z,1005.42
2019-05-20T17:41:33.936Z,1005.44